UAE804 OEJN-OMDB
Flight info
| Callsign | UAE804 |
|---|---|
| Flight time | N/A |
| Altitude | 37000 |
| Route | EGREP2W/34C EGREP T532 KODIS Y214 RAPMA DCT KUVSO DCT RIBOT M550 GOLGU M318 RURAL Q317 LORID |
| Aircraft | A388/J-SADE2E3FGHIJ3J4J5M1RWXY/LB1D1 |
Departure
| Time | 2026-04-30 21:19 |
|---|---|
| Airport | King Abdulaziz International Airport (OEJN) |
Arrival
| Time | N/A |
|---|---|
| Airport | Dubai International Airport (OMDB) |
| Time | Latitude | Longitude | Altitude | Speed | Heading |
|---|---|---|---|---|---|
| 2026-04-30 20:45 | 21.66644 | 39.17034 | 35 ft | 0 kts | 69° |
| 2026-04-30 21:05 | 21.66644 | 39.17035 | 35 ft | 3 kts | 116° |
| 2026-04-30 21:05 | 21.66652 | 39.17013 | 32 ft | 4 kts | 98° |
| 2026-04-30 21:05 | 21.66650 | 39.16986 | 32 ft | 4 kts | 70° |
| 2026-04-30 21:06 | 21.66643 | 39.16963 | 33 ft | 4 kts | 75° |
| 2026-04-30 21:06 | 21.66633 | 39.16948 | 31 ft | 4 kts | 23° |
| 2026-04-30 21:06 | 21.66611 | 39.16948 | 32 ft | 4 kts | 331° |
| 2026-04-30 21:06 | 21.66594 | 39.16958 | 32 ft | 0 kts | 339° |
| 2026-04-30 21:12 | 21.66596 | 39.16957 | 35 ft | 2 kts | 339° |
| 2026-04-30 21:12 | 21.66622 | 39.16946 | 35 ft | 6 kts | 339° |
| 2026-04-30 21:13 | 21.66670 | 39.16927 | 35 ft | 9 kts | 339° |
| 2026-04-30 21:13 | 21.66724 | 39.16894 | 35 ft | 9 kts | 298° |
| 2026-04-30 21:13 | 21.66724 | 39.16855 | 35 ft | 6 kts | 236° |
| 2026-04-30 21:13 | 21.66693 | 39.16813 | 35 ft | 8 kts | 245° |
| 2026-04-30 21:14 | 21.66667 | 39.16743 | 36 ft | 12 kts | 250° |
| 2026-04-30 21:14 | 21.66638 | 39.16649 | 36 ft | 15 kts | 253° |
| 2026-04-30 21:14 | 21.66600 | 39.16544 | 36 ft | 15 kts | 222° |
| 2026-04-30 21:14 | 21.66506 | 39.16522 | 37 ft | 14 kts | 152° |
| 2026-04-30 21:15 | 21.66403 | 39.16571 | 36 ft | 18 kts | 161° |
| 2026-04-30 21:15 | 21.66277 | 39.16622 | 36 ft | 21 kts | 159° |
| 2026-04-30 21:15 | 21.66208 | 39.16645 | 36 ft | 4 kts | 206° |
| 2026-04-30 21:15 | 21.66180 | 39.16609 | 36 ft | 9 kts | 237° |
| 2026-04-30 21:16 | 21.66150 | 39.16538 | 36 ft | 12 kts | 248° |
| 2026-04-30 21:16 | 21.66143 | 39.16489 | 36 ft | 4 kts | 311° |
| 2026-04-30 21:16 | 21.66172 | 39.16471 | 35 ft | 6 kts | 348° |
| 2026-04-30 21:16 | 21.66199 | 39.16461 | 35 ft | 0 kts | 336° |
| 2026-04-30 21:18 | 21.66202 | 39.16460 | 35 ft | 2 kts | 336° |
| 2026-04-30 21:18 | 21.66343 | 39.16400 | 38 ft | 57 kts | 340° |
| 2026-04-30 21:18 | 21.66948 | 39.16163 | 42 ft | 124 kts | 341° |
| 2026-04-30 21:19 | 21.67907 | 39.15797 | 86 ft | 161 kts | 342° |
| 2026-04-30 21:19 | 21.68976 | 39.15402 | 540 ft | 163 kts | 340° |
| 2026-04-30 21:19 | 21.70043 | 39.14996 | 1018 ft | 162 kts | 340° |
| 2026-04-30 21:19 | 21.71105 | 39.14558 | 1492 ft | 165 kts | 340° |
| 2026-04-30 21:20 | 21.72230 | 39.14271 | 1846 ft | 173 kts | 358° |
| 2026-04-30 21:20 | 21.73466 | 39.14486 | 1997 ft | 192 kts | 21° |
| 2026-04-30 21:20 | 21.74618 | 39.15360 | 2211 ft | 214 kts | 40° |
| 2026-04-30 21:20 | 21.75787 | 39.16486 | 2431 ft | 237 kts | 39° |
| 2026-04-30 21:21 | 21.77079 | 39.17705 | 2688 ft | 257 kts | 39° |
| 2026-04-30 21:21 | 21.78458 | 39.19000 | 3310 ft | 265 kts | 39° |
| 2026-04-30 21:21 | 21.81309 | 39.21683 | 4724 ft | 278 kts | 40° |
| 2026-04-30 21:22 | 21.82783 | 39.23072 | 5433 ft | 284 kts | 40° |
| 2026-04-30 21:22 | 21.87332 | 39.27362 | 6477 ft | 294 kts | 40° |
| 2026-04-30 21:23 | 21.88867 | 39.28811 | 7232 ft | 293 kts | 40° |
| 2026-04-30 21:23 | 21.90409 | 39.30267 | 7944 ft | 296 kts | 40° |
| 2026-04-30 21:23 | 21.93531 | 39.33215 | 9417 ft | 300 kts | 40° |
| 2026-04-30 21:24 | 21.95109 | 39.34705 | 10090 ft | 303 kts | 40° |
| 2026-04-30 21:24 | 21.96731 | 39.36237 | 10381 ft | 320 kts | 40° |
| 2026-04-30 21:24 | 21.98459 | 39.37868 | 10535 ft | 339 kts | 40° |
| 2026-04-30 21:24 | 22.00256 | 39.39565 | 10727 ft | 356 kts | 40° |
| 2026-04-30 21:25 | 22.04066 | 39.43170 | 11757 ft | 368 kts | 40° |
| 2026-04-30 21:25 | 22.06001 | 39.45002 | 12287 ft | 373 kts | 40° |
| 2026-04-30 21:25 | 22.07960 | 39.46858 | 12864 ft | 377 kts | 40° |
| 2026-04-30 21:26 | 22.11926 | 39.50616 | 13964 ft | 387 kts | 39° |
| 2026-04-30 21:26 | 22.13952 | 39.52537 | 14523 ft | 389 kts | 39° |
| 2026-04-30 21:27 | 22.18049 | 39.56423 | 15610 ft | 395 kts | 39° |
| 2026-04-30 21:27 | 22.20120 | 39.58389 | 16172 ft | 398 kts | 39° |
| 2026-04-30 21:27 | 22.22204 | 39.60367 | 16737 ft | 400 kts | 39° |
| 2026-04-30 21:28 | 22.26416 | 39.64372 | 17799 ft | 406 kts | 39° |
| 2026-04-30 21:28 | 22.28546 | 39.66397 | 18303 ft | 410 kts | 39° |
| 2026-04-30 21:28 | 22.32849 | 39.70489 | 19229 ft | 415 kts | 39° |
| 2026-04-30 21:29 | 22.35020 | 39.72554 | 19684 ft | 417 kts | 38° |
| 2026-04-30 21:29 | 22.41593 | 39.78818 | 21124 ft | 423 kts | 38° |
| 2026-04-30 21:30 | 22.46034 | 39.83053 | 21987 ft | 428 kts | 38° |
| 2026-04-30 21:31 | 22.52789 | 39.89500 | 23172 ft | 437 kts | 37° |
| 2026-04-30 21:31 | 22.57367 | 39.93865 | 24007 ft | 441 kts | 37° |
| 2026-04-30 21:32 | 22.62002 | 39.98291 | 24709 ft | 447 kts | 37° |
| 2026-04-30 21:32 | 22.64339 | 40.00526 | 25045 ft | 450 kts | 37° |
| 2026-04-30 21:32 | 22.66691 | 40.02777 | 25378 ft | 453 kts | 37° |
| 2026-04-30 21:32 | 22.69064 | 40.05047 | 25713 ft | 457 kts | 37° |
| 2026-04-30 21:33 | 22.71455 | 40.07336 | 26074 ft | 460 kts | 36° |
| 2026-04-30 21:33 | 22.76278 | 40.11958 | 26847 ft | 466 kts | 36° |
| 2026-04-30 21:33 | 22.78720 | 40.14299 | 27247 ft | 470 kts | 36° |
| 2026-04-30 21:34 | 22.81146 | 40.16626 | 27656 ft | 474 kts | 36° |
| 2026-04-30 21:34 | 22.86113 | 40.21395 | 28497 ft | 481 kts | 36° |
| 2026-04-30 21:34 | 22.88629 | 40.23812 | 28926 ft | 484 kts | 36° |
| 2026-04-30 21:35 | 22.91158 | 40.26243 | 29367 ft | 488 kts | 36° |
| 2026-04-30 21:35 | 22.93705 | 40.28693 | 29800 ft | 492 kts | 36° |
| 2026-04-30 21:35 | 22.96276 | 40.31167 | 30226 ft | 495 kts | 36° |
| 2026-04-30 21:35 | 22.98867 | 40.33661 | 30526 ft | 501 kts | 36° |
| 2026-04-30 21:36 | 23.01486 | 40.36184 | 30810 ft | 506 kts | 36° |
| 2026-04-30 21:36 | 23.04113 | 40.38716 | 31105 ft | 511 kts | 36° |
| 2026-04-30 21:37 | 23.12216 | 40.46534 | 31967 ft | 528 kts | 36° |
| 2026-04-30 21:37 | 23.14956 | 40.49180 | 32225 ft | 533 kts | 37° |
| 2026-04-30 21:37 | 23.17739 | 40.51871 | 32497 ft | 538 kts | 37° |
| 2026-04-30 21:37 | 23.20550 | 40.54593 | 32800 ft | 543 kts | 37° |
| 2026-04-30 21:38 | 23.23345 | 40.57298 | 33039 ft | 549 kts | 37° |
| 2026-04-30 21:38 | 23.26055 | 40.60354 | 33315 ft | 560 kts | 48° |
| 2026-04-30 21:38 | 23.28258 | 40.63847 | 34553 ft | 570 kts | 58° |
| 2026-04-30 21:38 | 23.29936 | 40.67745 | 33713 ft | 573 kts | 69° |
| 2026-04-30 21:39 | 23.32748 | 40.75914 | 34163 ft | 584 kts | 69° |
| 2026-04-30 21:39 | 23.34183 | 40.80048 | 34484 ft | 586 kts | 69° |
| 2026-04-30 21:39 | 23.35622 | 40.84193 | 34948 ft | 584 kts | 69° |
| 2026-04-30 21:40 | 23.37052 | 40.88314 | 35477 ft | 582 kts | 69° |
| 2026-04-30 21:40 | 23.38477 | 40.92425 | 36017 ft | 578 kts | 69° |
| 2026-04-30 21:40 | 23.39889 | 40.96504 | 36648 ft | 574 kts | 69° |
| 2026-04-30 21:40 | 23.40819 | 40.99194 | 36915 ft | 574 kts | 69° |
| 2026-04-30 21:41 | 23.42223 | 41.03258 | 37037 ft | 575 kts | 69° |
| 2026-04-30 21:41 | 23.43632 | 41.07340 | 37040 ft | 576 kts | 69° |
| 2026-04-30 21:41 | 23.46452 | 41.15520 | 37022 ft | 576 kts | 69° |
| 2026-04-30 21:42 | 23.49257 | 41.23673 | 37028 ft | 574 kts | 69° |
| 2026-04-30 21:42 | 23.52057 | 41.31828 | 37021 ft | 575 kts | 69° |
| 2026-04-30 21:43 | 23.54856 | 41.39994 | 37024 ft | 577 kts | 69° |
| 2026-04-30 21:43 | 23.57660 | 41.48193 | 37032 ft | 578 kts | 69° |
| 2026-04-30 21:44 | 23.60463 | 41.56403 | 37014 ft | 578 kts | 69° |
| 2026-04-30 21:44 | 23.63259 | 41.64610 | 37034 ft | 577 kts | 69° |
| 2026-04-30 21:45 | 23.66047 | 41.72809 | 37027 ft | 577 kts | 69° |
| 2026-04-30 21:45 | 23.68786 | 41.81039 | 37010 ft | 577 kts | 71° |
| 2026-04-30 21:46 | 23.71390 | 41.89309 | 37001 ft | 576 kts | 71° |
| 2026-04-30 21:46 | 23.74001 | 41.97576 | 36998 ft | 576 kts | 71° |
| 2026-04-30 21:47 | 23.76716 | 42.05785 | 37007 ft | 574 kts | 69° |
| 2026-04-30 21:47 | 23.79545 | 42.13938 | 37000 ft | 574 kts | 69° |
| 2026-04-30 21:48 | 23.82343 | 42.22093 | 36990 ft | 573 kts | 69° |
| 2026-04-30 21:48 | 23.85117 | 42.30239 | 37009 ft | 572 kts | 69° |
| 2026-04-30 21:49 | 23.87883 | 42.38383 | 36999 ft | 571 kts | 69° |
| 2026-04-30 21:49 | 23.90643 | 42.46524 | 36988 ft | 571 kts | 69° |
| 2026-04-30 21:50 | 23.93399 | 42.54671 | 36982 ft | 571 kts | 70° |
| 2026-04-30 21:50 | 23.96148 | 42.62811 | 36971 ft | 571 kts | 70° |
| 2026-04-30 21:51 | 23.98871 | 42.70890 | 36982 ft | 570 kts | 70° |
| 2026-04-30 21:51 | 24.01607 | 42.79025 | 36980 ft | 570 kts | 70° |
| 2026-04-30 21:52 | 24.03653 | 42.87365 | 36962 ft | 568 kts | 87° |
| 2026-04-30 21:52 | 24.03728 | 42.91662 | 36957 ft | 563 kts | 98° |
| 2026-04-30 21:52 | 24.03136 | 42.95866 | 36962 ft | 557 kts | 109° |
| 2026-04-30 21:53 | 24.00857 | 43.03913 | 36949 ft | 553 kts | 113° |
| 2026-04-30 21:53 | 23.98550 | 43.11938 | 36968 ft | 554 kts | 111° |
| 2026-04-30 21:54 | 23.96328 | 43.20008 | 36974 ft | 555 kts | 111° |
| 2026-04-30 21:54 | 23.94125 | 43.28091 | 36987 ft | 554 kts | 111° |
| 2026-04-30 21:55 | 23.91919 | 43.36167 | 36989 ft | 555 kts | 111° |
| 2026-04-30 21:55 | 23.89708 | 43.44237 | 36976 ft | 555 kts | 111° |
| 2026-04-30 21:56 | 23.87492 | 43.52303 | 36977 ft | 554 kts | 111° |
| 2026-04-30 21:56 | 23.85273 | 43.60365 | 36970 ft | 554 kts | 111° |
| 2026-04-30 21:57 | 23.83052 | 43.68418 | 36965 ft | 553 kts | 111° |
| 2026-04-30 21:57 | 23.80828 | 43.76460 | 36960 ft | 553 kts | 111° |
| 2026-04-30 21:58 | 23.78602 | 43.84495 | 36944 ft | 553 kts | 111° |
| 2026-04-30 21:58 | 23.77084 | 43.92770 | 36950 ft | 561 kts | 99° |
| 2026-04-30 21:59 | 23.76481 | 44.01269 | 36944 ft | 562 kts | 98° |
| 2026-04-30 22:00 | 23.75533 | 44.13945 | 36958 ft | 561 kts | 98° |
| 2026-04-30 22:00 | 23.74571 | 44.26676 | 36975 ft | 560 kts | 98° |
| 2026-04-30 22:01 | 23.73926 | 44.35149 | 36969 ft | 560 kts | 98° |
| 2026-04-30 22:01 | 23.73277 | 44.43615 | 36937 ft | 559 kts | 98° |
| 2026-04-30 22:02 | 23.72626 | 44.52048 | 36985 ft | 557 kts | 98° |
| 2026-04-30 22:02 | 23.71971 | 44.60470 | 36977 ft | 556 kts | 98° |
| 2026-04-30 22:03 | 23.71314 | 44.68864 | 36977 ft | 555 kts | 98° |
| 2026-04-30 22:03 | 23.70653 | 44.77240 | 36962 ft | 554 kts | 98° |
| 2026-04-30 22:04 | 23.69989 | 44.85608 | 36957 ft | 553 kts | 98° |
| 2026-04-30 22:05 | 23.68986 | 44.98132 | 36947 ft | 552 kts | 99° |
| 2026-04-30 22:05 | 23.68311 | 45.06466 | 36947 ft | 551 kts | 98° |
| 2026-04-30 22:06 | 23.67634 | 45.14793 | 36938 ft | 551 kts | 98° |
| 2026-04-30 22:06 | 23.66608 | 45.27285 | 36926 ft | 551 kts | 98° |
| 2026-04-30 22:07 | 23.65921 | 45.35606 | 36925 ft | 551 kts | 98° |
| 2026-04-30 22:07 | 23.65228 | 45.43930 | 36924 ft | 551 kts | 98° |
| 2026-04-30 22:08 | 23.64535 | 45.52198 | 36923 ft | 551 kts | 98° |
| 2026-04-30 22:08 | 23.63834 | 45.60516 | 36932 ft | 550 kts | 98° |
| 2026-04-30 22:09 | 23.63128 | 45.68826 | 36932 ft | 550 kts | 98° |
| 2026-04-30 22:09 | 23.62418 | 45.77133 | 36927 ft | 550 kts | 98° |
| 2026-04-30 22:10 | 23.61704 | 45.85428 | 36928 ft | 549 kts | 98° |
| 2026-04-30 22:10 | 23.60986 | 45.93719 | 36929 ft | 549 kts | 98° |
| 2026-04-30 22:11 | 23.59901 | 46.06154 | 36926 ft | 549 kts | 98° |
| 2026-04-30 22:12 | 23.59172 | 46.14438 | 36932 ft | 549 kts | 98° |
| 2026-04-30 22:12 | 23.58439 | 46.22737 | 36922 ft | 550 kts | 98° |
| 2026-04-30 22:13 | 23.57700 | 46.31043 | 36937 ft | 551 kts | 98° |
| 2026-04-30 22:13 | 23.56953 | 46.39364 | 36944 ft | 552 kts | 98° |
| 2026-04-30 22:14 | 23.56202 | 46.47700 | 36957 ft | 553 kts | 98° |
| 2026-04-30 22:14 | 23.55445 | 46.56056 | 36967 ft | 555 kts | 98° |
| 2026-04-30 22:15 | 23.54681 | 46.64425 | 36980 ft | 555 kts | 98° |
| 2026-04-30 22:15 | 23.53915 | 46.72786 | 36980 ft | 554 kts | 98° |
| 2026-04-30 22:16 | 23.53144 | 46.81142 | 36971 ft | 554 kts | 98° |
| 2026-04-30 22:17 | 23.51590 | 46.97829 | 36947 ft | 553 kts | 98° |
| 2026-04-30 22:17 | 23.50415 | 47.10318 | 36957 ft | 552 kts | 98° |
| 2026-04-30 22:18 | 23.49235 | 47.22763 | 36967 ft | 550 kts | 98° |
| 2026-04-30 22:19 | 23.48053 | 47.35124 | 36955 ft | 549 kts | 98° |
| 2026-04-30 22:20 | 23.46859 | 47.47507 | 36944 ft | 548 kts | 99° |
| 2026-04-30 22:20 | 23.45657 | 47.59870 | 36936 ft | 547 kts | 99° |
| 2026-04-30 22:21 | 23.44852 | 47.68098 | 36905 ft | 546 kts | 99° |
| 2026-04-30 22:21 | 23.44044 | 47.76308 | 36925 ft | 545 kts | 99° |
| 2026-04-30 22:22 | 23.43232 | 47.84513 | 36910 ft | 545 kts | 99° |
| 2026-04-30 22:22 | 23.42417 | 47.92712 | 36902 ft | 545 kts | 99° |
| 2026-04-30 22:23 | 23.41598 | 48.00909 | 36901 ft | 544 kts | 99° |
| 2026-04-30 22:23 | 23.40773 | 48.09107 | 36895 ft | 545 kts | 99° |
| 2026-04-30 22:24 | 23.39946 | 48.17300 | 36886 ft | 545 kts | 99° |
| 2026-04-30 22:24 | 23.39113 | 48.25495 | 36891 ft | 544 kts | 99° |
| 2026-04-30 22:25 | 23.38283 | 48.33668 | 36905 ft | 543 kts | 98° |
| 2026-04-30 22:25 | 23.37923 | 48.41902 | 36898 ft | 544 kts | 95° |
| 2026-04-30 22:26 | 23.37485 | 48.52853 | 36895 ft | 544 kts | 95° |
| 2026-04-30 22:27 | 23.37147 | 48.61075 | 36891 ft | 544 kts | 95° |
| 2026-04-30 22:27 | 23.36578 | 48.74733 | 36886 ft | 543 kts | 95° |
| 2026-04-30 22:28 | 23.36113 | 48.85722 | 36883 ft | 543 kts | 95° |
| 2026-04-30 22:29 | 23.35402 | 49.02134 | 36888 ft | 543 kts | 95° |
| 2026-04-30 22:31 | 23.33945 | 49.30864 | 36884 ft | 544 kts | 96° |
| 2026-04-30 22:32 | 23.32854 | 49.51371 | 36883 ft | 545 kts | 96° |
| 2026-04-30 22:33 | 23.31734 | 49.71894 | 36886 ft | 543 kts | 96° |
| 2026-04-30 22:35 | 23.30590 | 49.92359 | 36878 ft | 542 kts | 96° |
| 2026-04-30 22:36 | 23.29423 | 50.12782 | 36870 ft | 541 kts | 96° |
| 2026-04-30 22:37 | 23.28472 | 50.29098 | 36870 ft | 540 kts | 96° |
| 2026-04-30 22:38 | 23.27505 | 50.45390 | 36863 ft | 540 kts | 96° |
| 2026-04-30 22:39 | 23.26772 | 50.57546 | 36860 ft | 539 kts | 96° |
| 2026-04-30 22:40 | 23.25271 | 50.81960 | 36855 ft | 540 kts | 96° |
| 2026-04-30 22:41 | 23.23990 | 51.02317 | 36863 ft | 540 kts | 96° |
| 2026-04-30 22:43 | 23.22420 | 51.26711 | 36854 ft | 539 kts | 97° |
| 2026-04-30 22:44 | 23.21354 | 51.42954 | 36852 ft | 538 kts | 97° |
| 2026-04-30 22:45 | 23.19724 | 51.67304 | 36851 ft | 538 kts | 97° |
| 2026-04-30 22:47 | 23.18061 | 51.91578 | 36842 ft | 538 kts | 97° |
| 2026-04-30 22:48 | 23.16926 | 52.07844 | 36840 ft | 538 kts | 97° |
| 2026-04-30 22:49 | 23.15201 | 52.32112 | 36843 ft | 538 kts | 97° |
| 2026-04-30 22:50 | 23.16924 | 52.48227 | 36840 ft | 543 kts | 71° |
| 2026-04-30 22:51 | 23.20003 | 52.55715 | 36838 ft | 543 kts | 61° |
| 2026-04-30 22:52 | 23.25576 | 52.66432 | 36836 ft | 543 kts | 59° |
| 2026-04-30 22:53 | 23.32970 | 52.80744 | 36843 ft | 543 kts | 60° |
| 2026-04-30 22:53 | 23.38488 | 52.91497 | 36841 ft | 542 kts | 60° |
| 2026-04-30 22:55 | 23.47884 | 53.09278 | 36837 ft | 541 kts | 59° |
| 2026-04-30 22:56 | 23.55455 | 53.23459 | 36839 ft | 541 kts | 59° |
| 2026-04-30 22:57 | 23.64885 | 53.41210 | 36834 ft | 541 kts | 59° |
| 2026-04-30 22:58 | 23.72415 | 53.55419 | 36830 ft | 541 kts | 59° |
| 2026-04-30 22:59 | 23.83772 | 53.76744 | 36818 ft | 542 kts | 59° |